createdAt,value
2022-10-23T00:01:15.553Z,11.65
2022-10-23T00:02:52.263Z,11.61
2022-10-23T00:04:27.059Z,11.72
2022-10-23T00:05:58.644Z,11.62
2022-10-23T00:09:02.204Z,11.48
2022-10-23T00:10:33.857Z,11.42
2022-10-23T00:12:05.764Z,11.41
2022-10-23T00:13:38.763Z,11.49
2022-10-23T00:15:11.049Z,11.61
2022-10-23T00:16:42.714Z,11.59
2022-10-23T00:18:14.279Z,11.60
2022-10-23T00:19:45.879Z,11.51
2022-10-23T00:21:17.567Z,11.45
2022-10-23T00:22:49.157Z,11.58
2022-10-23T00:24:20.797Z,11.55
2022-10-23T00:25:52.416Z,11.55
2022-10-23T00:27:24.395Z,11.47
2022-10-23T00:28:57.351Z,11.37
2022-10-23T00:30:29.029Z,11.62
2022-10-23T00:32:00.604Z,11.58
2022-10-23T00:33:32.490Z,11.42
2022-10-23T00:35:04.805Z,11.47
2022-10-23T00:36:36.723Z,11.59
2022-10-23T00:38:08.750Z,11.48
2022-10-23T00:39:40.558Z,11.52
2022-10-23T00:41:15.233Z,11.51
2022-10-23T00:42:46.917Z,11.56
2022-10-23T00:44:54.597Z,11.48
2022-10-23T00:46:27.649Z,11.42
2022-10-23T00:47:59.411Z,11.43
2022-10-23T00:49:33.511Z,11.42
2022-10-23T00:51:06.156Z,11.47
2022-10-23T00:52:40.398Z,11.51
2022-10-23T00:54:23.461Z,11.55
2022-10-23T00:55:57.642Z,11.52
2022-10-23T00:59:00.818Z,11.48
2022-10-23T01:00:44.038Z,11.41
2022-10-23T01:02:17.109Z,11.46
2022-10-23T01:03:49.061Z,11.54
2022-10-23T01:05:22.647Z,11.43
2022-10-23T01:06:57.210Z,11.34
2022-10-23T01:08:30.598Z,11.47
2022-10-23T01:10:06.086Z,11.45
2022-10-23T01:11:40.903Z,11.36
2022-10-23T01:13:13.156Z,11.39
2022-10-23T01:14:47.763Z,11.46
2022-10-23T01:16:21.366Z,11.59
2022-10-23T01:17:56.456Z,11.67
2022-10-23T01:19:38.126Z,11.56
2022-10-23T01:21:10.556Z,11.30
2022-10-23T01:22:52.125Z,11.20
2022-10-23T01:24:31.118Z,11.50
2022-10-23T01:26:18.623Z,11.51
2022-10-23T01:27:52.814Z,11.59
2022-10-23T01:29:26.068Z,11.46
2022-10-23T01:30:58.003Z,11.37
2022-10-23T01:32:35.206Z,11.38
2022-10-23T01:34:08.993Z,11.39
2022-10-23T01:35:43.464Z,11.40
2022-10-23T01:37:17.719Z,11.28
2022-10-23T01:38:52.809Z,11.36
2022-10-23T01:40:25.267Z,11.32
2022-10-23T01:41:58.535Z,11.05
2022-10-23T01:43:32.681Z,11.18
2022-10-23T01:45:06.799Z,11.12
2022-10-23T01:46:38.411Z,10.94
2022-10-23T01:48:11.982Z,11.12
2022-10-23T01:49:43.571Z,11.21
2022-10-23T01:51:15.195Z,11.02
2022-10-23T01:52:46.799Z,11.26
2022-10-23T01:54:18.389Z,11.24
2022-10-23T01:55:50.029Z,10.96
2022-10-23T01:57:22.036Z,10.95
2022-10-23T01:58:55.587Z,11.07
2022-10-23T02:00:27.202Z,11.13
2022-10-23T02:01:59.200Z,11.07
2022-10-23T02:03:31.448Z,11.03
2022-10-23T02:05:04.422Z,10.93
2022-10-23T02:06:36.196Z,10.97
2022-10-23T02:08:07.831Z,10.91
2022-10-23T02:09:39.426Z,10.95
2022-10-23T02:11:12.829Z,10.95
2022-10-23T02:12:48.855Z,11.00
2022-10-23T02:14:25.516Z,10.96
2022-10-23T02:16:00.646Z,11.04
2022-10-23T02:17:36.725Z,10.93
2022-10-23T02:19:13.034Z,10.94
2022-10-23T02:20:46.388Z,10.91
2022-10-23T02:22:21.097Z,10.96
2022-10-23T02:23:56.161Z,10.92
2022-10-23T02:25:33.412Z,10.89
2022-10-23T02:27:08.499Z,10.75
2022-10-23T02:28:41.800Z,10.67
2022-10-23T02:30:15.427Z,10.74
2022-10-23T02:31:46.993Z,10.78
2022-10-23T02:33:18.795Z,10.78
2022-10-23T02:34:50.407Z,10.81
2022-10-23T02:36:21.983Z,10.99
2022-10-23T02:37:54.064Z,10.85
2022-10-23T02:39:27.036Z,10.91
2022-10-23T02:41:01.228Z,10.74
2022-10-23T02:42:34.280Z,10.79
2022-10-23T02:44:28.661Z,10.88
2022-10-23T02:46:04.635Z,10.83
2022-10-23T02:47:43.814Z,10.83
2022-10-23T02:49:18.751Z,10.94
2022-10-23T02:50:52.162Z,10.97
2022-10-23T02:52:24.658Z,10.90
2022-10-23T02:53:58.910Z,11.01
2022-10-23T02:55:35.596Z,10.97
2022-10-23T02:57:12.746Z,11.02
2022-10-23T02:58:45.462Z,10.94
2022-10-23T03:00:18.437Z,10.94
2022-10-23T03:01:53.356Z,10.88
2022-10-23T03:03:26.971Z,10.80
2022-10-23T03:04:58.584Z,10.77
2022-10-23T03:06:30.187Z,10.77
2022-10-23T03:08:05.352Z,10.79
2022-10-23T03:09:37.106Z,10.77
2022-10-23T03:11:08.718Z,10.79
2022-10-23T03:12:40.558Z,10.80
2022-10-23T03:14:12.623Z,10.63
2022-10-23T03:15:44.281Z,10.66
2022-10-23T03:17:17.213Z,10.71
2022-10-23T03:18:48.786Z,10.80
2022-10-23T03:20:20.408Z,10.60
2022-10-23T03:21:52.003Z,10.54
2022-10-23T03:23:23.597Z,10.70
2022-10-23T03:24:55.278Z,10.72
2022-10-23T03:26:26.878Z,10.74
2022-10-23T03:27:58.548Z,10.78
2022-10-23T03:29:30.145Z,10.53
2022-10-23T03:31:02.280Z,10.59
2022-10-23T03:32:35.334Z,10.69
2022-10-23T03:34:11.056Z,10.73
2022-10-23T03:35:42.666Z,10.67
2022-10-23T03:37:14.297Z,10.73
2022-10-23T03:38:45.886Z,10.44
2022-10-23T03:40:17.538Z,10.38
2022-10-23T03:41:49.111Z,10.56
2022-10-23T03:43:20.697Z,10.45
2022-10-23T03:44:52.340Z,10.06
2022-10-23T03:46:24.266Z,10.07
2022-10-23T03:47:57.239Z,10.11
2022-10-23T03:49:28.832Z,10.35
2022-10-23T03:51:00.464Z,10.43
2022-10-23T03:52:32.033Z,10.36
2022-10-23T03:54:03.813Z,10.52
2022-10-23T03:55:35.448Z,10.64
2022-10-23T03:57:07.085Z,10.57
2022-10-23T03:58:38.695Z,10.42
2022-10-23T04:00:11.294Z,10.45
2022-10-23T04:01:42.977Z,10.43
2022-10-23T04:03:16.199Z,10.45
2022-10-23T04:04:47.911Z,10.40
2022-10-23T04:06:19.497Z,10.44
2022-10-23T04:07:51.136Z,10.22
2022-10-23T04:09:22.705Z,10.36
2022-10-23T04:10:54.393Z,10.43
2022-10-23T04:12:25.967Z,10.55
2022-10-23T04:13:57.537Z,10.50
2022-10-23T04:15:29.103Z,10.43
2022-10-23T04:17:00.699Z,10.42
2022-10-23T04:18:33.643Z,10.15
2022-10-23T04:20:05.810Z,10.35
2022-10-23T04:21:37.432Z,10.23
2022-10-23T04:23:09.031Z,10.31
2022-10-23T04:24:45.376Z,10.10
2022-10-23T04:26:17.029Z,10.12
2022-10-23T04:27:48.631Z,9.93
2022-10-23T04:29:22.531Z,9.67
2022-10-23T04:30:54.216Z,10.11
2022-10-23T04:32:25.855Z,10.15
2022-10-23T04:33:58.871Z,10.09
2022-10-23T04:35:30.564Z,10.18
2022-10-23T04:37:02.188Z,10.22
2022-10-23T04:38:33.840Z,10.26
2022-10-23T04:40:06.521Z,10.17
2022-10-23T04:41:38.948Z,10.19
2022-10-23T04:43:10.571Z,10.34
2022-10-23T04:44:42.152Z,10.27
2022-10-23T04:46:13.735Z,10.22
2022-10-23T04:47:45.439Z,10.23
2022-10-23T04:49:18.503Z,10.15
2022-10-23T04:50:57.480Z,9.82
2022-10-23T04:52:29.052Z,9.65
2022-10-23T04:54:00.659Z,9.29
2022-10-23T04:55:32.249Z,9.86
2022-10-23T04:57:03.951Z,10.09
2022-10-23T04:58:35.572Z,9.91
2022-10-23T05:00:08.725Z,9.89
2022-10-23T05:01:40.287Z,9.91
2022-10-23T05:03:11.902Z,10.07
2022-10-23T05:04:44.875Z,10.09
2022-10-23T05:06:16.500Z,9.77
2022-10-23T05:07:48.054Z,9.88
2022-10-23T05:09:19.622Z,9.94
2022-10-23T05:10:51.215Z,9.97
2022-10-23T05:12:25.391Z,9.93
2022-10-23T05:13:57.023Z,9.95
2022-10-23T05:15:28.606Z,10.02
2022-10-23T05:17:00.818Z,9.79
2022-10-23T05:18:33.985Z,9.87
2022-10-23T05:20:09.291Z,9.89
2022-10-23T05:21:40.967Z,9.84
2022-10-23T05:23:13.173Z,9.87
2022-10-23T05:24:48.214Z,9.85
2022-10-23T05:26:22.476Z,9.64
2022-10-23T05:27:54.087Z,9.67
2022-10-23T05:29:25.668Z,9.64
2022-10-23T05:30:58.797Z,9.67
2022-10-23T05:32:30.655Z,9.56
2022-10-23T05:34:02.233Z,9.60
2022-10-23T05:35:35.255Z,9.49
2022-10-23T05:37:07.661Z,9.40
2022-10-23T05:38:39.233Z,9.15
2022-10-23T05:40:11.858Z,8.97
2022-10-23T05:41:43.468Z,9.41
2022-10-23T05:43:15.060Z,9.66
2022-10-23T05:44:46.697Z,9.67
2022-10-23T05:46:18.380Z,9.70
2022-10-23T05:47:49.969Z,9.73
2022-10-23T05:49:21.598Z,9.63
2022-10-23T05:50:54.538Z,9.65
2022-10-23T05:52:26.130Z,9.34
2022-10-23T05:53:57.788Z,9.17
2022-10-23T05:55:29.447Z,8.84
2022-10-23T05:57:01.038Z,9.31
2022-10-23T05:58:32.714Z,9.14
2022-10-23T06:00:05.385Z,9.18
2022-10-23T06:01:37.391Z,9.01
2022-10-23T06:03:09.071Z,8.83
2022-10-23T06:04:40.736Z,9.21
2022-10-23T06:06:13.752Z,9.46
2022-10-23T06:07:45.458Z,9.36
2022-10-23T06:09:17.244Z,9.26
2022-10-23T06:10:48.873Z,9.52
2022-10-23T06:12:20.577Z,9.52
2022-10-23T06:13:52.330Z,9.24
2022-10-23T06:15:23.973Z,9.41
2022-10-23T06:16:55.601Z,9.44
2022-10-23T06:18:27.239Z,9.54
2022-10-23T06:20:02.473Z,9.43
2022-10-23T06:21:37.690Z,9.06
2022-10-23T06:23:09.307Z,9.35
2022-10-23T06:24:40.966Z,9.35
2022-10-23T06:26:13.668Z,9.38
2022-10-23T06:27:47.669Z,9.12
2022-10-23T06:29:19.388Z,9.26
2022-10-23T06:30:51.341Z,9.40
2022-10-23T06:32:24.427Z,9.27
2022-10-23T06:33:56.180Z,9.41
2022-10-23T06:35:27.952Z,9.49
2022-10-23T06:37:00.927Z,9.57
2022-10-23T06:38:37.285Z,9.10
2022-10-23T06:40:09.712Z,9.09
2022-10-23T06:41:42.248Z,9.32
2022-10-23T06:43:13.841Z,9.48
2022-10-23T06:44:45.459Z,9.30
2022-10-23T06:46:17.319Z,9.04
2022-10-23T06:47:49.939Z,9.25
2022-10-23T06:49:21.535Z,9.47
2022-10-23T06:50:53.141Z,9.59
2022-10-23T06:52:45.999Z,9.48
2022-10-23T06:54:17.688Z,9.28
2022-10-23T06:55:52.857Z,9.17
2022-10-23T06:57:27.083Z,9.29
2022-10-23T06:58:58.746Z,9.48
2022-10-23T07:00:30.578Z,9.59
2022-10-23T07:02:02.302Z,9.64
2022-10-23T07:03:34.673Z,9.62
2022-10-23T07:05:08.822Z,9.68
2022-10-23T07:06:44.248Z,9.78
2022-10-23T07:08:17.261Z,9.84
2022-10-23T07:09:48.845Z,9.85
2022-10-23T07:11:20.472Z,9.87
2022-10-23T07:12:52.166Z,9.94
2022-10-23T07:14:23.761Z,9.93
2022-10-23T07:15:55.364Z,10.01
2022-10-23T07:17:28.267Z,10.03
2022-10-23T07:19:01.197Z,10.07
2022-10-23T07:20:32.964Z,10.11
2022-10-23T07:22:04.543Z,10.05
2022-10-23T07:23:37.752Z,10.00
2022-10-23T07:25:09.494Z,10.08
2022-10-23T07:26:41.586Z,10.24
2022-10-23T07:28:13.251Z,10.29
2022-10-23T07:29:44.854Z,10.41
2022-10-23T07:31:16.576Z,10.45
2022-10-23T07:32:48.161Z,10.49
2022-10-23T07:34:20.138Z,10.69
2022-10-23T07:35:51.735Z,10.65
2022-10-23T07:37:23.367Z,10.59
2022-10-23T07:38:56.325Z,10.58
2022-10-23T07:40:27.999Z,10.62
2022-10-23T07:41:59.638Z,10.82
2022-10-23T07:45:04.538Z,10.98
2022-10-23T07:46:36.110Z,10.95
2022-10-23T07:48:07.738Z,11.05
2022-10-23T07:49:39.356Z,11.07
2022-10-23T07:51:12.725Z,11.00
2022-10-23T07:52:44.579Z,11.11
2022-10-23T07:54:17.706Z,11.12
2022-10-23T07:55:53.539Z,11.16
2022-10-23T07:57:25.223Z,11.30
2022-10-23T07:58:57.041Z,11.25
2022-10-23T08:00:28.656Z,11.29
2022-10-23T08:02:00.398Z,11.34
2022-10-23T08:03:33.049Z,11.46
2022-10-23T08:05:05.257Z,11.51
2022-10-23T08:06:38.592Z,11.49
2022-10-23T08:08:10.187Z,11.37
2022-10-23T08:09:43.152Z,11.53
2022-10-23T08:11:15.085Z,11.59
2022-10-23T08:12:46.648Z,11.50
2022-10-23T08:14:18.262Z,11.51
2022-10-23T08:15:50.356Z,11.55
2022-10-23T08:17:24.013Z,11.60
2022-10-23T08:18:57.922Z,11.64
2022-10-23T08:20:29.511Z,11.53
2022-10-23T08:22:01.120Z,11.70
2022-10-23T08:23:32.762Z,11.66
2022-10-23T08:25:06.366Z,11.72
2022-10-23T08:26:38.031Z,11.68
2022-10-23T08:28:09.728Z,11.88
2022-10-23T08:29:41.345Z,11.89
2022-10-23T08:31:14.606Z,11.82
2022-10-23T08:32:46.186Z,11.84
2022-10-23T08:34:18.830Z,11.87
2022-10-23T08:35:50.573Z,11.95
2022-10-23T08:37:22.213Z,11.99
2022-10-23T08:38:54.831Z,11.91
2022-10-23T08:40:27.813Z,11.82
2022-10-23T08:41:59.434Z,11.98
2022-10-23T08:43:34.032Z,12.11
2022-10-23T08:45:06.847Z,12.12
2022-10-23T08:46:40.228Z,11.99
2022-10-23T08:48:15.612Z,12.00
2022-10-23T08:49:49.351Z,12.01
2022-10-23T08:51:22.899Z,12.12
2022-10-23T08:52:57.162Z,12.08
2022-10-23T08:54:33.773Z,12.14
2022-10-23T08:56:09.526Z,12.15
2022-10-23T08:57:43.874Z,11.99
2022-10-23T08:59:20.363Z,11.99
2022-10-23T09:00:51.998Z,12.09
2022-10-23T09:02:25.580Z,12.00
2022-10-23T09:03:57.299Z,12.04
2022-10-23T09:05:31.675Z,12.05
2022-10-23T09:07:07.250Z,12.07
2022-10-23T09:08:44.557Z,12.15
2022-10-23T09:10:28.814Z,12.16
2022-10-23T09:12:04.081Z,12.25
2022-10-23T09:14:01.215Z,12.21
2022-10-23T09:15:35.134Z,12.17
2022-10-23T09:18:49.602Z,12.41
2022-10-23T09:20:22.811Z,12.41
2022-10-23T09:21:56.689Z,12.45
2022-10-23T09:23:31.203Z,12.41
2022-10-23T09:25:02.846Z,12.32
2022-10-23T09:26:34.590Z,12.37
2022-10-23T09:28:11.594Z,12.36
2022-10-23T09:29:48.077Z,12.36
2022-10-23T09:31:19.730Z,12.34
2022-10-23T09:32:51.468Z,12.47
2022-10-23T09:34:24.991Z,12.58
2022-10-23T09:35:57.623Z,12.61
2022-10-23T09:37:30.016Z,12.56
2022-10-23T09:39:01.688Z,12.53
2022-10-23T09:40:38.201Z,12.56
2022-10-23T09:42:15.728Z,12.61
2022-10-23T09:43:59.869Z,12.63
2022-10-23T09:45:32.540Z,12.72
2022-10-23T09:47:11.097Z,12.82
2022-10-23T09:48:42.692Z,12.84
2022-10-23T09:50:19.804Z,12.90
2022-10-23T09:51:54.367Z,12.91
2022-10-23T09:53:32.020Z,12.81
2022-10-23T09:55:18.054Z,12.86
2022-10-23T09:56:49.785Z,12.94
2022-10-23T09:58:28.974Z,12.95
2022-10-23T10:00:04.147Z,12.91
2022-10-23T10:01:36.407Z,12.95
2022-10-23T10:03:19.296Z,13.01
2022-10-23T10:04:50.908Z,13.02
2022-10-23T10:06:23.568Z,13.02
2022-10-23T10:07:56.693Z,13.00
2022-10-23T10:09:28.406Z,12.91
2022-10-23T10:11:01.728Z,12.86
2022-10-23T10:12:45.745Z,12.91
2022-10-23T10:14:40.938Z,13.02
2022-10-23T10:16:16.007Z,12.97
2022-10-23T10:17:52.727Z,13.02
2022-10-23T10:19:30.878Z,12.99
2022-10-23T10:21:07.767Z,13.08
2022-10-23T10:22:40.494Z,13.04
2022-10-23T10:24:14.957Z,13.11
2022-10-23T10:25:52.162Z,13.26
2022-10-23T10:27:32.052Z,13.15
2022-10-23T10:29:10.593Z,13.22
2022-10-23T10:30:45.679Z,13.12
2022-10-23T10:32:25.899Z,13.14
2022-10-23T10:34:02.061Z,13.11
2022-10-23T10:35:38.401Z,13.07
2022-10-23T10:37:17.577Z,13.08
2022-10-23T10:38:50.151Z,13.20
2022-10-23T10:40:25.226Z,13.34
2022-10-23T10:42:04.344Z,13.46
2022-10-23T10:43:39.645Z,13.49
2022-10-23T10:45:26.629Z,13.56
2022-10-23T10:46:59.747Z,13.57
2022-10-23T10:48:41.086Z,13.61
2022-10-23T10:50:17.365Z,13.50
2022-10-23T10:51:53.011Z,13.47
2022-10-23T10:53:27.173Z,13.46
2022-10-23T10:55:02.800Z,13.60
2022-10-23T10:56:35.459Z,13.55
2022-10-23T10:58:12.265Z,13.29
2022-10-23T10:59:44.335Z,13.16
2022-10-23T11:01:26.716Z,13.36
2022-10-23T11:03:01.024Z,13.36
2022-10-23T11:04:35.466Z,13.32
2022-10-23T11:06:13.328Z,13.38
2022-10-23T11:07:52.361Z,13.54
2022-10-23T11:09:25.957Z,13.78
2022-10-23T11:11:03.037Z,13.89
2022-10-23T11:12:34.624Z,13.86
2022-10-23T11:14:06.373Z,13.91
2022-10-23T11:15:39.886Z,13.93
2022-10-23T11:17:15.640Z,13.80
2022-10-23T11:18:51.555Z,13.76
2022-10-23T11:20:44.455Z,13.87
2022-10-23T11:22:19.343Z,13.70
2022-10-23T11:24:18.516Z,13.68
2022-10-23T11:25:57.824Z,13.82
2022-10-23T11:27:37.835Z,13.88
2022-10-23T11:29:46.331Z,14.02
2022-10-23T11:31:21.766Z,14.01
2022-10-23T11:33:25.272Z,14.20
2022-10-23T11:35:18.635Z,14.17
2022-10-23T11:36:52.972Z,14.30
2022-10-23T11:38:25.992Z,14.44
2022-10-23T11:40:01.213Z,14.47
2022-10-23T11:41:34.634Z,14.57
2022-10-23T11:43:07.845Z,14.39
2022-10-23T11:44:41.780Z,14.32
2022-10-23T11:46:13.627Z,14.39
2022-10-23T11:47:45.202Z,14.28
2022-10-23T11:49:20.456Z,14.26
2022-10-23T11:50:54.908Z,14.28
2022-10-23T11:52:27.858Z,14.26
2022-10-23T11:54:24.879Z,14.25
2022-10-23T11:55:58.040Z,14.07
2022-10-23T11:59:19.674Z,14.00
2022-10-23T12:00:56.753Z,13.95
2022-10-23T12:02:31.940Z,13.98
2022-10-23T12:04:06.626Z,14.06
2022-10-23T12:05:40.450Z,14.01
2022-10-23T12:07:16.519Z,14.05
2022-10-23T12:08:52.556Z,14.12
2022-10-23T12:10:27.136Z,14.05
2022-10-23T12:12:04.350Z,13.98
2022-10-23T12:13:45.828Z,13.95
2022-10-23T12:15:20.084Z,13.83
2022-10-23T12:16:51.710Z,13.87
2022-10-23T12:18:23.354Z,13.89
2022-10-23T12:20:01.435Z,13.93
2022-10-23T12:21:34.327Z,13.89
2022-10-23T12:23:16.974Z,13.84
2022-10-23T12:24:55.329Z,13.88
2022-10-23T12:26:38.290Z,13.85
2022-10-23T12:28:14.459Z,13.87
2022-10-23T12:29:53.977Z,13.83
2022-10-23T12:31:30.436Z,13.90
2022-10-23T12:33:10.198Z,13.83
2022-10-23T12:34:45.311Z,13.65
2022-10-23T12:36:28.515Z,13.78
2022-10-23T12:38:05.319Z,13.88
2022-10-23T12:39:38.977Z,13.89
2022-10-23T12:41:13.795Z,13.75
2022-10-23T12:42:50.195Z,13.84
2022-10-23T12:44:21.794Z,13.96
2022-10-23T12:45:53.443Z,14.03
2022-10-23T12:47:25.149Z,14.09
2022-10-23T12:48:57.048Z,14.13
2022-10-23T12:50:30.175Z,14.09
2022-10-23T12:52:02.913Z,14.13
2022-10-23T12:53:34.482Z,14.19
2022-10-23T12:55:13.225Z,14.16
2022-10-23T12:56:46.363Z,14.22
2022-10-23T12:58:21.886Z,14.18
2022-10-23T12:59:55.585Z,14.18
2022-10-23T13:01:27.986Z,14.18
2022-10-23T13:03:00.155Z,14.16
2022-10-23T13:04:32.359Z,14.16
2022-10-23T13:06:04.294Z,14.20
2022-10-23T13:07:37.073Z,14.20
2022-10-23T13:09:18.983Z,14.15
2022-10-23T13:10:50.562Z,14.05
2022-10-23T13:12:27.711Z,14.05
2022-10-23T13:13:59.350Z,14.08
2022-10-23T13:15:37.059Z,14.05
2022-10-23T13:17:10.055Z,14.05
2022-10-23T13:18:42.089Z,14.06
2022-10-23T13:20:22.036Z,14.09
2022-10-23T13:21:53.606Z,14.07
2022-10-23T13:23:28.100Z,14.10
2022-10-23T13:25:02.467Z,14.06
2022-10-23T13:26:35.024Z,14.06
2022-10-23T13:28:22.057Z,14.07
2022-10-23T13:29:53.650Z,14.01
2022-10-23T13:31:27.586Z,14.00
2022-10-23T13:32:59.679Z,14.04
2022-10-23T13:34:31.300Z,14.08
2022-10-23T13:36:04.233Z,14.10
2022-10-23T13:37:38.578Z,14.12
2022-10-23T13:39:14.827Z,14.12
2022-10-23T13:40:55.465Z,14.18
2022-10-23T13:42:27.306Z,14.21
2022-10-23T13:44:00.305Z,14.21
2022-10-23T13:45:35.264Z,14.22
2022-10-23T13:47:09.303Z,14.20
2022-10-23T13:48:40.894Z,14.22
2022-10-23T13:50:12.653Z,14.19
2022-10-23T13:51:45.011Z,14.19
2022-10-23T13:53:16.673Z,14.17
2022-10-23T13:54:51.219Z,14.17
2022-10-23T13:56:23.706Z,14.20
2022-10-23T13:57:56.369Z,14.23
2022-10-23T13:59:29.331Z,14.26
2022-10-23T14:01:01.082Z,14.29
2022-10-23T14:02:33.118Z,14.31
2022-10-23T14:04:05.045Z,14.32
2022-10-23T14:05:36.694Z,14.35
2022-10-23T14:07:08.446Z,14.39
2022-10-23T14:08:40.045Z,14.37
2022-10-23T14:10:11.668Z,14.35
2022-10-23T14:11:43.455Z,14.41
2022-10-23T14:13:15.086Z,14.44
2022-10-23T14:14:51.908Z,14.43
2022-10-23T14:16:23.541Z,14.47
2022-10-23T14:17:59.079Z,14.50
2022-10-23T14:19:33.079Z,14.51
2022-10-23T14:21:05.977Z,14.54
2022-10-23T14:22:37.562Z,14.60
2022-10-23T14:24:09.341Z,14.63
2022-10-23T14:25:40.931Z,14.67
2022-10-23T14:27:12.507Z,14.60
2022-10-23T14:28:44.202Z,14.51
2022-10-23T14:30:17.212Z,14.49
2022-10-23T14:31:48.807Z,14.51
2022-10-23T14:33:20.702Z,14.64
2022-10-23T14:34:56.754Z,14.70
2022-10-23T14:36:38.321Z,14.63
2022-10-23T14:38:20.300Z,14.61
2022-10-23T14:39:51.946Z,14.54
2022-10-23T14:41:23.600Z,14.67
2022-10-23T14:42:55.165Z,14.69
2022-10-23T14:44:26.863Z,14.69
2022-10-23T14:46:07.887Z,14.61
2022-10-23T14:47:39.589Z,14.62
2022-10-23T14:49:11.301Z,14.72
2022-10-23T14:50:46.817Z,14.76
2022-10-23T14:52:18.605Z,14.75
2022-10-23T14:53:57.968Z,14.67
2022-10-23T14:55:32.977Z,14.61
2022-10-23T14:57:04.561Z,14.62
2022-10-23T14:58:36.177Z,14.57
2022-10-23T15:00:11.530Z,14.64
2022-10-23T15:01:48.372Z,14.93
2022-10-23T15:03:21.009Z,14.88
2022-10-23T15:04:52.642Z,14.89
2022-10-23T15:06:24.506Z,14.80
2022-10-23T15:07:56.945Z,14.69
2022-10-23T15:09:28.552Z,14.73
2022-10-23T15:11:01.146Z,14.74
2022-10-23T15:12:32.802Z,14.83
2022-10-23T15:14:04.457Z,14.80
2022-10-23T15:15:36.148Z,14.81
2022-10-23T15:17:14.540Z,14.77
2022-10-23T15:18:47.385Z,14.71
2022-10-23T15:20:19.008Z,14.62
2022-10-23T15:21:51.635Z,14.54
2022-10-23T15:23:23.242Z,14.53
2022-10-23T15:24:56.763Z,14.55
2022-10-23T15:26:29.172Z,14.49
2022-10-23T15:28:00.879Z,14.48
2022-10-23T15:29:35.698Z,14.47
2022-10-23T15:31:07.251Z,14.46
2022-10-23T15:32:41.085Z,14.42
2022-10-23T15:34:14.852Z,14.40
2022-10-23T15:35:46.429Z,14.41
2022-10-23T15:37:18.008Z,14.39
2022-10-23T15:38:49.688Z,14.41
2022-10-23T15:40:21.348Z,14.38
2022-10-23T15:41:54.106Z,14.33
2022-10-23T15:43:25.759Z,14.31
2022-10-23T15:44:57.360Z,14.28
2022-10-23T15:46:28.982Z,14.23
2022-10-23T15:48:02.190Z,14.21
2022-10-23T15:49:33.916Z,14.24
2022-10-23T15:51:05.897Z,14.28
2022-10-23T15:52:37.484Z,14.28
2022-10-23T15:54:10.336Z,14.23
2022-10-23T15:55:43.096Z,14.24
2022-10-23T15:57:14.672Z,14.23
2022-10-23T15:58:46.257Z,14.22
2022-10-23T16:00:20.399Z,14.23
2022-10-23T16:01:52.534Z,14.16
2022-10-23T16:03:25.560Z,14.14
2022-10-23T16:04:57.197Z,14.19
2022-10-23T16:06:28.777Z,14.18
2022-10-23T16:08:00.449Z,14.19
2022-10-23T16:09:32.779Z,14.16
2022-10-23T16:11:07.148Z,14.15
2022-10-23T16:12:38.737Z,14.13
2022-10-23T16:14:12.189Z,14.16
2022-10-23T16:15:43.971Z,14.13
2022-10-23T16:18:48.569Z,14.09
2022-10-23T16:20:21.085Z,13.99
2022-10-23T16:21:52.750Z,14.02
2022-10-23T16:23:28.329Z,14.03
2022-10-23T16:24:59.969Z,13.99
2022-10-23T16:26:31.581Z,13.84
2022-10-23T16:28:03.378Z,13.83
2022-10-23T16:29:34.971Z,13.83
2022-10-23T16:31:09.092Z,13.84
2022-10-23T16:32:40.840Z,13.91
2022-10-23T16:34:13.985Z,13.88
2022-10-23T16:35:45.575Z,13.88
2022-10-23T16:37:17.150Z,13.85
2022-10-23T16:38:48.846Z,13.84
2022-10-23T16:40:23.587Z,13.78
2022-10-23T16:41:55.409Z,13.86
2022-10-23T16:43:27.364Z,13.88
2022-10-23T16:44:59.139Z,13.88
2022-10-23T16:46:30.798Z,13.87
2022-10-23T16:48:02.564Z,13.85
2022-10-23T16:49:35.793Z,13.82
2022-10-23T16:51:07.849Z,13.81
2022-10-23T16:52:39.428Z,13.65
2022-10-23T16:54:11.080Z,13.63
2022-10-23T16:55:42.954Z,13.74
2022-10-23T16:57:14.622Z,13.61
2022-10-23T16:58:46.501Z,13.32
2022-10-23T17:00:23.026Z,13.39
2022-10-23T17:01:54.757Z,13.45
2022-10-23T17:03:26.705Z,13.91
2022-10-23T17:04:59.923Z,14.09
2022-10-23T17:06:32.174Z,14.03
2022-10-23T17:08:03.863Z,13.89
2022-10-23T17:09:35.831Z,13.86
2022-10-23T17:11:07.934Z,13.83
2022-10-23T17:12:39.502Z,13.70
2022-10-23T17:14:12.283Z,13.65
2022-10-23T17:15:44.364Z,13.67
2022-10-23T17:17:16.056Z,13.67
2022-10-23T17:18:47.826Z,13.63
2022-10-23T17:20:21.070Z,13.62
2022-10-23T17:21:53.003Z,13.61
2022-10-23T17:23:24.744Z,13.55
2022-10-23T17:24:56.338Z,13.58
2022-10-23T17:26:28.594Z,13.59
2022-10-23T17:28:00.188Z,13.61
2022-10-23T17:29:31.912Z,13.64
2022-10-23T17:31:03.531Z,13.59
2022-10-23T17:32:35.283Z,13.64
2022-10-23T17:34:07.872Z,13.69
2022-10-23T17:35:40.873Z,13.67
2022-10-23T17:37:14.327Z,13.66
2022-10-23T17:38:45.968Z,13.68
2022-10-23T17:40:21.480Z,13.74
2022-10-23T17:41:55.948Z,13.68
2022-10-23T17:43:27.655Z,13.70
2022-10-23T17:44:59.281Z,13.64
2022-10-23T17:46:30.845Z,13.68
2022-10-23T17:48:02.510Z,13.67
2022-10-23T17:49:34.104Z,13.59
2022-10-23T17:51:07.954Z,13.60
2022-10-23T17:52:39.609Z,13.56
2022-10-23T17:54:11.482Z,13.55
2022-10-23T17:55:43.210Z,13.57
2022-10-23T17:57:17.729Z,13.61
2022-10-23T17:58:49.325Z,13.60
2022-10-23T18:00:21.120Z,13.68
2022-10-23T18:01:53.311Z,13.78
2022-10-23T18:03:25.018Z,13.86
2022-10-23T18:04:56.618Z,13.88
2022-10-23T18:06:32.052Z,13.81
2022-10-23T18:08:03.722Z,13.65
2022-10-23T18:09:35.344Z,13.59
2022-10-23T18:11:07.429Z,13.61
2022-10-23T18:12:39.099Z,13.64
2022-10-23T18:14:10.756Z,13.58
2022-10-23T18:15:43.297Z,13.56
2022-10-23T18:17:14.991Z,13.57
2022-10-23T18:18:48.245Z,13.56
2022-10-23T18:20:19.849Z,13.43
2022-10-23T18:21:52.895Z,13.48
2022-10-23T18:23:24.542Z,13.52
2022-10-23T18:24:56.226Z,13.48
2022-10-23T18:26:28.570Z,13.49
2022-10-23T18:28:02.383Z,13.55
2022-10-23T18:29:34.329Z,13.55
2022-10-23T18:31:08.020Z,13.57
2022-10-23T18:32:39.849Z,13.59
2022-10-23T18:34:15.284Z,13.43
2022-10-23T18:35:47.034Z,13.48
2022-10-23T18:37:20.171Z,13.56
2022-10-23T18:38:51.851Z,13.52
2022-10-23T18:40:25.678Z,13.48
2022-10-23T18:41:59.729Z,13.54
2022-10-23T18:43:43.299Z,13.55
2022-10-23T18:45:16.797Z,13.54
2022-10-23T18:46:48.571Z,13.53
2022-10-23T18:48:20.176Z,13.45
2022-10-23T18:49:51.832Z,13.33
2022-10-23T18:51:27.232Z,13.37
2022-10-23T18:53:00.168Z,13.42
2022-10-23T18:54:31.893Z,13.46
2022-10-23T18:56:03.470Z,13.55
2022-10-23T18:57:35.684Z,13.62
2022-10-23T18:59:08.237Z,13.67
2022-10-23T19:00:40.551Z,13.73
2022-10-23T19:02:12.382Z,13.76
2022-10-23T19:03:44.291Z,13.80
2022-10-23T19:05:15.984Z,13.84
2022-10-23T19:06:48.080Z,13.87
2022-10-23T19:08:21.798Z,13.86
2022-10-23T19:09:53.487Z,13.83
2022-10-23T19:11:25.547Z,13.68
2022-10-23T19:12:57.165Z,13.68
2022-10-23T19:14:29.884Z,13.61
2022-10-23T19:16:01.715Z,13.46
2022-10-23T19:17:33.360Z,13.50
2022-10-23T19:19:07.317Z,13.62
2022-10-23T19:20:41.499Z,13.68
2022-10-23T19:22:13.273Z,13.69
2022-10-23T19:23:46.251Z,13.71
2022-10-23T19:25:19.283Z,13.67
2022-10-23T19:26:51.167Z,13.75
2022-10-23T19:28:24.857Z,13.73
2022-10-23T19:29:56.551Z,13.61
2022-10-23T19:31:28.142Z,13.41
2022-10-23T19:32:59.753Z,13.48
2022-10-23T19:34:37.242Z,13.92
2022-10-23T19:36:13.926Z,14.01
2022-10-23T19:37:46.247Z,14.15
2022-10-23T19:39:22.558Z,14.23
2022-10-23T19:40:55.672Z,14.17
2022-10-23T19:42:27.255Z,14.12
2022-10-23T19:43:58.956Z,14.05
2022-10-23T19:45:33.513Z,14.00
2022-10-23T19:47:05.173Z,13.95
2022-10-23T19:48:36.848Z,13.98
2022-10-23T19:50:09.529Z,13.97
2022-10-23T19:51:50.388Z,13.97
2022-10-23T19:53:22.741Z,13.92
2022-10-23T19:54:57.708Z,13.89
2022-10-23T19:56:31.650Z,13.90
2022-10-23T19:58:06.221Z,13.87
2022-10-23T19:59:46.483Z,13.80
2022-10-23T20:01:21.701Z,13.86
2022-10-23T20:02:55.851Z,13.87
2022-10-23T20:04:28.834Z,13.90
2022-10-23T20:06:00.500Z,14.03
2022-10-23T20:07:33.462Z,14.06
2022-10-23T20:09:07.937Z,14.25
2022-10-23T20:10:42.748Z,14.18
2022-10-23T20:12:14.570Z,14.10
2022-10-23T20:13:46.187Z,14.14
2022-10-23T20:15:18.013Z,14.56
2022-10-23T20:16:54.863Z,14.56
2022-10-23T20:18:27.586Z,14.67
2022-10-23T20:19:59.175Z,14.68
2022-10-23T20:21:30.798Z,14.77